Latest Weather Observations for Point Avoid

IDS60801

Issued at 8:01 am CST Friday 19 August 2022 (issued every 10 minutes, with the page automatically refreshed every 10 minutes)

About weather observations | Map of weather stations | Latest weather observations for SA | Other Formats
Station Details ID: 018230 Name: POINT AVOID Lat: -34.67 Lon: 135.34 Height: 35.0 m
Data from the previous 72 hours. | See also: Recent months at Point Avoid
Date/Time
CST
Temp
°C
App
Temp
°C
Dew
Point
°C
Rel
Hum
%
Delta-T
°C
Wind Press
QNH
hPa
Press
MSL
hPa
Rain since
9am
mm
Dir  Spd
km/h
Gust
km/h
Spd
kts
Gust
kts
19/08:00am 12.9 8.1 8.8 76 2.1 WNW 24 33 13 18 1020.0 1020.0 1.0
19/07:30am 13.1 7.4 8.2 72 2.4 WNW 28 37 15 20 1019.9 1019.9 1.0
19/07:00am 12.4 6.7 6.7 68 2.7 WNW 26 39 14 21 1019.7 1019.7 1.0
19/06:30am 12.4 7.7 7.7 73 2.3 WNW 22 30 12 16 1019.6 1019.6 1.0
19/06:00am 12.2 6.8 6.5 68 2.7 W 24 30 13 16 1019.7 1019.7 1.0
19/05:30am 11.9 7.1 5.5 65 3.0 W 20 32 11 17 1019.6 1019.6 1.0
19/05:00am 12.1 6.3 6.4 68 2.7 WSW 26 35 14 19 1019.5 1019.5 1.0
19/04:30am 11.9 5.5 5.3 64 3.0 WSW 28 35 15 19 1019.2 1019.2 1.0
19/04:00am 11.8 5.8 5.2 64 3.0 WSW 26 35 14 19 1019.1 1019.1 1.0
19/03:30am 11.9 4.8 5.3 64 3.0 WSW 32 39 17 21 1019.0 1019.0 1.0
19/03:00am 11.9 6.1 6.4 69 2.6 WSW 26 33 14 18 1018.8 1018.8 1.0
19/02:30am 12.0 6.0 7.1 72 2.3 WSW 28 37 15 20 1018.9 1018.9 1.0
19/02:00am 11.8 4.8 6.1 68 2.7 WSW 32 43 17 23 1018.9 1018.9 1.0
19/01:30am 11.8 4.8 5.9 67 2.8 WSW 32 41 17 22 1018.9 1018.9 1.0
19/01:00am 11.4 4.9 6.3 71 2.4 WSW 30 37 16 20 1018.8 1018.8 1.0
19/12:30am 11.3 6.1 7.2 76 2.0 SW 24 39 13 21 1018.6 1018.6 1.0
19/12:00am 11.6 4.5 5.7 67 2.7 WSW 32 39 17 21 1018.5 1018.5 1.0
 
Date/Time
CST
Temp
°C
App
Temp
°C
Dew
Point
°C
Rel
Hum
%
Delta-T
°C
Wind Press
QNH
hPa
Press
MSL
hPa
Rain since
9am
mm
Dir  Spd
km/h
Gust
km/h
Spd
kts
Gust
kts
18/11:30pm 11.7 5.5 6.0 68 2.7 WSW 28 35 15 19 1018.3 1018.3 1.0
18/11:00pm 11.5 4.2 5.4 66 2.8 WSW 33 41 18 22 1018.1 1018.1 1.0
18/10:30pm 11.5 5.3 6.0 69 2.6 WSW 28 37 15 20 1018.1 1018.1 1.0
18/10:00pm 12.3 5.4 7.4 72 2.4 WSW 33 44 18 24 1017.8 1017.8 1.0
18/09:30pm 12.1 5.1 6.2 67 2.8 WSW 32 41 17 22 1017.6 1017.6 1.0
18/09:00pm 11.9 6.0 7.6 75 2.1 WSW 28 39 15 21 1017.3 1017.3 1.0
18/08:30pm 11.6 4.5 6.5 71 2.4 WSW 33 44 18 24 1016.9 1016.9 1.0
18/08:00pm 12.1 5.2 6.4 68 2.7 WSW 32 43 17 23 1016.5 1016.5 1.0
18/07:30pm 12.0 5.5 6.7 70 2.5 WSW 30 43 16 23 1016.1 1016.1 1.0
18/07:01pm 12.2 5.7 6.5 68 2.7 WSW 30 48 16 26 1015.7 1015.7 1.0
18/07:00pm 12.2 6.0 6.0 66 2.9 WSW 28 44 15 24 1015.7 1015.7 1.0
18/06:30pm 12.4 5.7 7.3 71 2.5 WSW 32 39 17 21 1015.2 1015.2 1.0
18/06:00pm 11.1 4.7 6.8 75 2.0 WSW 30 44 16 24 1014.9 1014.9 1.0
18/05:43pm 12.5 6.1 7.0 69 2.6 WSW 30 54 16 29 1014.4 1014.4 1.0
18/05:30pm 12.4 5.4 6.2 66 2.9 WSW 32 41 17 22 1014.1 1014.1 1.0
18/05:00pm 12.3 6.0 7.4 72 2.4 WSW 30 43 16 23 1013.5 1013.5 1.0
18/04:30pm 14.0 7.2 6.8 62 3.5 WSW 32 48 17 26 1013.0 1013.0 1.0
18/04:00pm 13.9 6.0 7.9 67 3.0 WSW 39 50 21 27 1012.4 1012.4 1.0
18/03:30pm 14.2 7.4 7.9 66 3.1 WSW 33 44 18 24 1012.1 1012.1 1.0
18/03:00pm 13.4 6.7 8.3 71 2.5 SW 33 43 18 23 1011.8 1011.8 1.0
18/02:30pm 13.4 7.6 8.0 70 2.7 SW 28 41 15 22 1011.3 1011.3 1.0
18/02:00pm 13.1 7.6 9.0 76 2.1 WSW 28 39 15 21 1010.8 1010.8 1.0
18/01:30pm 12.7 8.3 9.0 78 1.9 WSW 22 32 12 17 1010.7 1010.7 1.0
18/01:00pm 11.8 8.2 10.5 92 0.7 WSW 20 28 11 15 1010.7 1010.7 1.0
18/12:30pm 11.9 7.5 10.3 90 0.8 WSW 24 33 13 18 1010.8 1010.8 0.6
18/12:00pm 11.3 4.2 9.6 89 0.9 WSW 37 52 20 28 1010.7 1010.7 0.2
18/11:51am 12.7 6.5 10.1 84 1.3 WSW 33 48 18 26 1010.5 1010.5 0.0
18/11:30am 14.0 10.4 10.4 79 1.9 WSW 20 28 11 15 1010.1 1010.1 0.0
18/11:00am 13.5 7.2 11.0 85 1.3 WSW 35 43 19 23 1009.8 1009.8 0.0
18/10:30am 13.7 10.1 10.7 82 1.6 W 20 28 11 15 1009.5 1009.6 0.0
18/10:00am 13.8 10.1 10.0 78 2.0 W 20 37 11 20 1009.2 1009.3 0.0
18/09:30am 14.7 11.0 11.5 81 1.7 W 22 28 12 15 1009.2 1009.3 0.0
18/09:00am 14.3 11.0 11.6 84 1.5 WNW 20 26 11 14 1009.4 1009.5 14.0
18/08:30am 13.7 9.9 11.2 85 1.3 W 22 28 12 15 1009.0 1009.1 14.0
18/08:00am 13.5 9.7 11.0 85 1.3 WNW 22 39 12 21 1008.9 1009.0 14.0
18/07:30am 13.7 10.1 10.7 82 1.6 WNW 20 30 11 16 1008.6 1008.7 13.6
18/07:00am 13.4 9.0 10.4 82 1.6 W 24 33 13 18 1008.3 1008.4 13.6
18/06:30am 13.7 9.5 11.0 84 1.4 WNW 24 33 13 18 1008.0 1008.1 13.6
18/06:00am 13.8 9.3 11.3 85 1.3 WNW 26 35 14 19 1007.8 1007.9 13.6
18/05:30am 13.7 9.0 11.9 89 1.0 WNW 28 39 15 21 1007.5 1007.6 13.6
18/05:00am 13.8 8.6 12.7 93 0.6 NNW 32 44 17 24 1007.2 1007.3 13.6
18/04:30am 13.7 9.2 12.6 93 0.6 NNW 28 37 15 20 1007.2 1007.3 13.6
18/04:00am 13.7 9.3 12.8 94 0.5 NNW 28 33 15 18 1007.2 1007.3 13.6
18/03:30am 13.6 9.1 12.7 94 0.5 NNW 28 37 15 20 1007.3 1007.4 13.6
18/03:00am 13.5 8.9 12.4 93 0.6 NNW 28 35 15 19 1007.4 1007.5 13.6
18/02:30am 13.5 9.4 12.6 94 0.5 NNW 26 32 14 17 1007.8 1007.9 13.6
18/02:00am 13.4 8.9 12.5 94 0.5 NW 28 33 15 18 1008.1 1008.2 13.4
18/01:30am 13.4 9.2 12.5 94 0.5 NW 26 32 14 17 1008.1 1008.2 13.4
18/01:00am 13.6 9.2 12.8 95 0.4 NNW 28 33 15 18 1008.3 1008.4 13.4
18/12:30am 13.5 9.8 12.6 94 0.5 NW 24 30 13 16 1008.5 1008.6 13.4
18/12:00am 13.4 8.9 12.5 94 0.5 NW 28 33 15 18 1008.6 1008.7 13.4
 
Date/Time
CST
Temp
°C
App
Temp
°C
Dew
Point
°C
Rel
Hum
%
Delta-T
°C
Wind Press
QNH
hPa
Press
MSL
hPa
Rain since
9am
mm
Dir  Spd
km/h
Gust
km/h
Spd
kts
Gust
kts
17/11:30pm 13.4 9.7 12.6 95 0.4 NW 24 33 13 18 1009.0 1009.1 13.4
17/11:00pm 13.3 9.2 12.7 96 0.3 WNW 26 37 14 20 1008.6 1008.7 13.0
17/10:30pm 13.1 7.8 12.5 96 0.3 WNW 32 41 17 22 1009.3 1009.4 12.6
17/10:00pm 13.0 8.1 12.5 97 0.3 NW 30 43 16 23 1008.3 1008.4 10.8
17/09:30pm 13.3 10.0 12.8 97 0.3 NW 22 33 12 18 1008.7 1008.8 8.8
17/09:00pm 13.4 10.5 12.9 97 0.3 WNW 20 30 11 16 1008.9 1009.0 6.4
17/08:30pm 13.4 11.1 12.9 97 0.3 WNW 17 22 9 12 1008.3 1008.4 4.0
17/08:00pm 13.6 11.3 13.1 97 0.3 W 17 24 9 13 1008.7 1008.8 1.6
17/07:30pm 13.6 10.7 13.0 96 0.3 WSW 20 28 11 15 1008.3 1008.4 0.4
17/07:00pm 13.7 9.3 12.9 95 0.4 WSW 28 39 15 21 1008.3 1008.4 0.0
17/06:30pm 15.0 11.4 13.0 88 1.1 WNW 24 32 13 17 1007.2 1007.3 0.0
17/06:00pm 15.6 11.6 10.4 71 2.8 NNW 22 30 12 16 1006.7 1006.8 0.0
17/05:30pm 15.9 10.5 9.6 66 3.3 NNW 28 39 15 21 1007.0 1007.1 0.0
17/05:00pm 16.2 11.4 8.9 62 3.8 NNW 24 32 13 17 1006.8 1006.9 0.0
17/04:30pm 16.0 10.3 8.2 60 4.0 N 28 41 15 22 1006.6 1006.6 0.0
17/04:00pm 15.8 10.5 8.5 62 3.7 N 26 39 14 21 1006.9 1007.0 0.0
17/03:30pm 16.1 8.8 7.3 56 4.4 N 35 43 19 23 1006.4 1006.4 0.0
17/03:00pm 15.8 8.5 7.3 57 4.2 N 35 44 19 24 1006.5 1006.5 0.0
17/02:30pm 15.8 8.1 7.1 56 4.3 N 37 48 20 26 1006.4 1006.4 0.0
17/02:00pm 15.7 8.8 7.2 57 4.2 N 33 43 18 23 1007.0 1007.1 0.0
17/01:30pm 15.8 9.1 7.3 57 4.2 N 32 44 17 24 1007.3 1007.4 0.0
17/01:00pm 15.5 8.6 7.3 58 4.1 N 33 41 18 22 1008.3 1008.4 0.0
17/12:30pm 15.0 9.1 7.5 61 3.7 N 28 39 15 21 1008.7 1008.8 0.0
17/12:00pm 14.7 8.4 7.5 62 3.6 N 30 41 16 22 1009.0 1009.1 0.0
17/11:30am 14.8 9.3 7.4 61 3.7 N 26 35 14 19 1010.1 1010.1 0.0
17/11:00am 14.4 7.9 6.7 60 3.7 N 30 41 16 22 1010.4 1010.4 0.0
17/10:30am 14.3 7.9 6.9 61 3.6 NNE 30 37 16 20 1010.7 1010.7 0.0
17/10:00am 14.4 9.1 7.0 61 3.6 N 24 35 13 19 1011.3 1011.3 0.0
17/09:30am 14.3 8.2 6.6 60 3.7 N 28 39 15 21 1011.5 1011.5 0.0
17/09:00am 14.2 8.1 6.6 60 3.7 NNE 28 39 15 21 1011.6 1011.6 0.0
17/08:30am 14.0 8.1 7.3 64 3.3 NNE 28 43 15 23 1011.2 1011.2 0.0
17/08:00am 13.9 8.3 7.0 63 3.4 NNE 26 41 14 22 1011.9 1011.9 0.0
17/07:30am 13.9 7.8 6.7 62 3.5 NNE 28 41 15 22 1011.5 1011.5 0.0
17/07:00am 13.9 7.8 6.7 62 3.5 NNE 28 39 15 21 1011.5 1011.5 0.0
17/06:30am 14.2 7.7 6.3 59 3.8 NNE 30 43 16 23 1011.9 1011.9 0.0
17/06:00am 14.0 7.9 6.8 62 3.5 NNE 28 37 15 20 1011.9 1011.9 0.0
17/05:30am 13.9 7.5 7.0 63 3.4 NNE 30 41 16 22 1011.9 1011.9 0.0
17/05:00am 13.4 9.0 7.2 66 3.0 NNE 20 30 11 16 1012.4 1012.4 0.0
17/04:30am 13.5 8.0 7.5 67 2.9 NNE 26 39 14 21 1012.9 1012.9 0.0
17/04:00am 13.2 9.1 7.9 70 2.6 NNE 19 28 10 15 1013.3 1013.3 0.0
17/03:30am 13.3 8.1 7.1 66 3.0 NNE 24 32 13 17 1013.4 1013.4 0.0
17/03:00am 12.9 8.5 7.6 70 2.6 NNE 20 28 11 15 1013.7 1013.7 0.0
17/02:30am 13.3 8.9 7.3 67 2.9 NNE 20 30 11 16 1014.5 1014.5 0.0
17/02:00am 13.2 9.0 7.4 68 2.8 NNE 19 26 10 14 1014.9 1014.9 0.0
17/01:30am 13.3 8.9 7.5 68 2.8 N 20 26 11 14 1014.9 1014.9 0.0
17/01:00am 13.4 9.1 7.8 69 2.8 N 20 26 11 14 1015.1 1015.1 0.0
17/12:30am 13.8 9.5 8.0 68 2.9 N 20 28 11 15 1015.1 1015.1 0.0
17/12:00am 13.7 7.9 7.9 68 2.9 N 28 37 15 20 1014.8 1014.8 0.0
 
Date/Time
CST
Temp
°C
App
Temp
°C
Dew
Point
°C
Rel
Hum
%
Delta-T
°C
Wind Press
QNH
hPa
Press
MSL
hPa
Rain since
9am
mm
Dir  Spd
km/h
Gust
km/h
Spd
kts
Gust
kts
16/11:30pm 13.8 9.2 8.2 69 2.8 NNE 22 35 12 19 1015.2 1015.2 0.0
16/11:00pm 13.2 9.3 8.7 74 2.3 NNE 19 28 10 15 1015.3 1015.3 0.0
16/10:30pm 12.9 8.5 9.0 77 2.0 NNE 22 30 12 16 1015.5 1015.5 0.0
16/10:00pm 13.4 9.4 8.9 74 2.3 NNE 20 30 11 16 1016.1 1016.1 0.0
16/09:30pm 12.8 9.4 9.3 79 1.8 NNE 17 24 9 13 1016.5 1016.5 0.0
16/09:00pm 12.4 9.5 9.8 84 1.3 NNE 15 20 8 11 1016.8 1016.8 0.0
16/08:30pm 12.3 10.6 10.0 86 1.2 NNE 9 11 5 6 1017.6 1017.6 0.0
16/08:00pm 12.4 11.3 10.0 85 1.2 N 6 9 3 5 1018.0 1018.0 0.0
16/07:30pm 12.4 11.1 9.8 84 1.3 N 7 9 4 5 1018.1 1018.1 0.0
16/07:00pm 12.8 11.1 10.0 83 1.4 N 9 13 5 7 1017.9 1017.9 0.0
16/06:30pm 12.8 10.7 9.8 82 1.5 N 11 15 6 8 1018.0 1018.0 0.0
16/06:00pm 13.1 10.9 9.4 78 1.9 N 11 15 6 8 1017.5 1017.5 0.0
16/05:30pm 13.7 11.1 9.4 75 2.2 N 13 19 7 10 1017.5 1017.5 0.0
16/05:00pm 14.1 11.8 8.9 71 2.6 NNW 11 15 6 8 1017.5 1017.5 0.0
16/04:30pm 14.6 11.2 9.2 70 2.8 NNW 17 22 9 12 1017.7 1017.7 0.0
16/04:00pm 14.5 11.0 8.9 69 2.8 NNW 17 22 9 12 1017.7 1017.7 0.0
16/03:30pm 15.3 12.1 8.5 64 3.4 N 15 20 8 11 1017.7 1017.7 0.0
16/03:00pm 15.9 13.1 8.4 61 3.8 N 13 17 7 9 1017.6 1017.6 0.0
16/02:30pm 15.8 13.0 8.5 62 3.7 N 13 19 7 10 1018.3 1018.3 0.0
16/02:00pm 15.7 12.7 9.1 65 3.4 N 15 20 8 11 1018.5 1018.5 0.0
16/01:30pm 16.0 14.4 10.1 68 3.1 N 9 13 5 7 1018.9 1018.9 0.0
16/01:00pm 15.1 12.7 8.6 65 3.3 NW 11 13 6 7 1019.6 1019.6 0.0
16/12:30pm 15.3 13.4 9.0 66 3.2 NW 9 11 5 6 1019.9 1019.9 0.0
16/12:00pm 15.0 13.4 8.9 67 3.1 NW 7 11 4 6 1020.2 1020.2 0.0
16/11:30am 14.7 13.0 9.9 73 2.5 NW 9 11 5 6 1020.5 1020.5 0.0
16/11:00am 14.0 12.8 10.4 79 1.9 NNW 7 11 4 6 1020.8 1020.8 0.0
16/10:30am 13.9 12.5 9.5 75 2.2 NNW 7 11 4 6 1020.8 1020.8 0.0
16/10:00am 13.6 12.7 10.6 82 1.6 N 6 7 3 4 1020.7 1020.7 0.0
16/09:30am 12.7 11.1 10.2 85 1.3 NNE 9 11 5 6 1020.3 1020.3 0.0
16/09:00am 12.5 11.2 9.9 84 1.3 ENE 7 11 4 6 1019.9 1019.9 3.6
16/08:30am 10.9 9.4 9.3 90 0.8 SSE 7 9 4 5 1020.0 1020.0 3.6

Other formats

Comma delimited format used in spreadsheet applications
http://www.bom.gov.au/fwo/IDS60801/IDS60801.95649.axf

JavaScript Object Notation format (JSON) in row-major order
http://www.bom.gov.au/fwo/IDS60801/IDS60801.95649.json

Data quality

Most of these data are generated automatically and are frequently updated. Quality checks on data are not normally performed. It is possible for incorrect values to appear. Refer to information at About Latest Weather Observations and please check the disclaimer before using these data.